Welcome to the Virtual
Houston Air Route Traffic Control Center

Login

 
 

Forgot your password?

Controllers Online
Callsign Controller
Loading...
Updated --
Airport Information
ICAO Rules Wind Baro
Loading...
Updated --
Full Weather Information
Top Controllers - Jan '17
Controller Online
En-Route / Oceanic
1 Dylan Pierce (I1) 149889:59
2 Cole Connelly (C1) 10:39
3 Brandon Barrett (I3) 10:06
4 Matthew Kosmoski (C1) 05:31
5 Billy Bowers (C1) 05:17
Terminal RADAR
1 Chase Parisher (S3) 23:21
2 Matheus Berger (S3) 06:54
3 Matthew Kosmoski (C1) 05:24
4 Jonathan Voss (C3) 04:24
5 Tyler Milligan (C1) 03:28
C/G/L Control
1 Robert Heilman (S2) 180:17
2 Jordan Robinson (S1) 28:21
3 Alan Johnston (S1) 19:19
4 Sean Wangnick (S1) 05:20
5 Michael Gordon (S2) 05:12
Full Controller Statistics
Flight Level Radio
VATSIM
VATUSA

Weather


KAUSKAUS 211717Z 20011G18KT 8SM FEW012 SCT018 SCT120 SCT200 21/15 A2957 RMK AO2 T02060150 $
KBTRKBTR 211653Z 13008KT 10SM CLR 21/16 A2971 RMK AO2 SLP059 T02110156 $
KCRPKCRP 211651Z 23012KT 10SM FEW015 23/18 A2961 RMK AO2 SLP027 T02280178 $
KGPTKGPT 211653Z VRB03KT 10SM CLR 21/17 A2974 RMK AO2 SLP072 T02060167 $
KHOUKHOU 211719Z 18012G17KT 7SM SCT022 BKN070 23/18 A2960 RMK AO2 T02280178
KIAHKIAH 211653Z 17008KT 8SM SCT014 BKN020 BKN120 OVC190 21/18 A2961 RMK AO2 SLP026 T02110178
KLCHKLCH 211653Z 12006KT 9SM OVC010 21/19 A2966 RMK AO2 CIG 010V014 SLP051 T02110189 $
KMOBKMOB 211656Z 00000KT 10SM FEW060 21/15 A2974 RMK AO2 SLP068 T02060150
KMSYKMSY 211653Z 12011KT 10SM SCT025 SCT037 BKN044 21/17 A2972 RMK AO2 SLP068 T02060167 $
KSATKSAT 211651Z 22006KT 10SM FEW170 SCT250 19/13 A2961 RMK AO2 SLP012 T01890133 $